createdAt,value
2022-08-16T00:01:42.010Z,100308.00
2022-08-16T00:04:09.573Z,100313.00
2022-08-16T00:06:40.670Z,100316.00
2022-08-16T00:09:10.791Z,100316.00
2022-08-16T00:11:41.658Z,100312.00
2022-08-16T00:14:14.959Z,100316.00
2022-08-16T00:17:00.987Z,100333.00
2022-08-16T00:19:41.270Z,100333.00
2022-08-16T00:22:13.708Z,100314.00
2022-08-16T00:24:44.705Z,100332.00
2022-08-16T00:27:13.993Z,100326.00
2022-08-16T00:29:41.802Z,100331.00
2022-08-16T00:32:11.239Z,100331.00
2022-08-16T00:34:43.320Z,100322.00
2022-08-16T00:37:16.784Z,100330.00
2022-08-16T00:39:47.726Z,100319.00
2022-08-16T00:42:30.296Z,100337.00
2022-08-16T00:45:08.241Z,100324.00
2022-08-16T00:47:48.963Z,100332.00
2022-08-16T00:50:36.521Z,100318.00
2022-08-16T00:53:08.251Z,100336.00
2022-08-16T00:55:41.413Z,100331.00
2022-08-16T00:58:12.920Z,100333.00
2022-08-16T01:00:54.219Z,100326.00
2022-08-16T01:03:30.181Z,100335.00
2022-08-16T01:06:00.283Z,100322.00
2022-08-16T01:08:54.084Z,100332.00
2022-08-16T01:11:26.275Z,100335.00
2022-08-16T01:14:02.863Z,100339.00
2022-08-16T01:16:31.158Z,100321.00
2022-08-16T01:19:13.689Z,100322.00
2022-08-16T01:21:42.871Z,100335.00
2022-08-16T01:24:51.631Z,100325.00
2022-08-16T01:27:29.309Z,100324.00
2022-08-16T01:30:20.705Z,100319.00
2022-08-16T01:33:01.605Z,100337.00
2022-08-16T01:35:47.462Z,100336.00
2022-08-16T01:38:29.868Z,100331.00
2022-08-16T01:41:09.078Z,100333.00
2022-08-16T01:43:39.983Z,100323.00
2022-08-16T01:46:39.415Z,100335.00
2022-08-16T01:49:19.224Z,100342.00
2022-08-16T01:51:54.265Z,100336.00
2022-08-16T01:54:30.662Z,100334.00
2022-08-16T01:58:14.030Z,100343.00
2022-08-16T02:00:49.182Z,100334.00
2022-08-16T02:03:17.062Z,100330.00
2022-08-16T02:05:52.226Z,100341.00
2022-08-16T02:08:33.312Z,100340.00
2022-08-16T02:11:05.962Z,100332.00
2022-08-16T02:13:33.575Z,100324.00
2022-08-16T02:16:01.567Z,100335.00
2022-08-16T02:18:29.373Z,100339.00
2022-08-16T02:20:56.981Z,100332.00
2022-08-16T02:23:25.571Z,100325.00
2022-08-16T02:25:57.279Z,100334.00
2022-08-16T02:28:26.999Z,100344.00
2022-08-16T02:30:57.702Z,100331.00
2022-08-16T02:33:44.195Z,100346.00
2022-08-16T02:36:47.584Z,100325.00
2022-08-16T02:39:07.236Z,100323.00
2022-08-16T02:41:39.612Z,100330.00
2022-08-16T02:44:13.648Z,100333.00
2022-08-16T02:46:49.863Z,100323.00
2022-08-16T02:49:21.202Z,100323.00
2022-08-16T02:51:50.229Z,100320.00
2022-08-16T02:54:17.615Z,100333.00
2022-08-16T02:56:47.889Z,100319.00
2022-08-16T02:59:15.280Z,100322.00
2022-08-16T03:01:42.541Z,100334.00
2022-08-16T03:04:24.828Z,100323.00
2022-08-16T03:06:58.116Z,100322.00
2022-08-16T03:09:28.634Z,100315.00
2022-08-16T03:11:57.509Z,100324.00
2022-08-16T03:14:25.287Z,100331.00
2022-08-16T03:17:00.231Z,100332.00
2022-08-16T03:19:47.633Z,100334.00
2022-08-16T03:22:27.932Z,100326.00
2022-08-16T03:25:02.069Z,100330.00
2022-08-16T03:27:32.604Z,100318.00
2022-08-16T03:30:16.059Z,100318.00
2022-08-16T03:32:51.531Z,100320.00
2022-08-16T03:35:32.727Z,100320.00
2022-08-16T03:38:32.645Z,100319.00
2022-08-16T03:40:52.830Z,100321.00
2022-08-16T03:43:21.642Z,100315.00
2022-08-16T03:45:52.803Z,100317.00
2022-08-16T03:48:36.251Z,100331.00
2022-08-16T03:51:09.378Z,100316.00
2022-08-16T03:53:38.557Z,100334.00
2022-08-16T03:56:07.895Z,100335.00
2022-08-16T03:58:36.957Z,100341.00
2022-08-16T04:01:05.592Z,100335.00
2022-08-16T04:03:34.051Z,100349.00
2022-08-16T04:06:03.549Z,100339.00
2022-08-16T04:08:31.433Z,100346.00
2022-08-16T04:11:03.842Z,100349.00
2022-08-16T04:13:58.907Z,100352.00
2022-08-16T04:16:26.509Z,100372.00
2022-08-16T04:19:01.282Z,100367.00
2022-08-16T04:21:32.303Z,100372.00
2022-08-16T04:24:00.716Z,100376.00
2022-08-16T04:26:31.195Z,100381.00
2022-08-16T04:29:16.572Z,100369.00
2022-08-16T04:31:55.532Z,100380.00
2022-08-16T04:34:27.808Z,100373.00
2022-08-16T04:36:57.036Z,100366.00
2022-08-16T04:39:45.783Z,100381.00
2022-08-16T04:42:26.125Z,100382.00
2022-08-16T04:44:56.188Z,100382.00
2022-08-16T04:47:33.401Z,100382.00
2022-08-16T04:50:08.929Z,100381.00
2022-08-16T04:52:37.608Z,100374.00
2022-08-16T04:55:16.756Z,100380.00
2022-08-16T04:57:46.376Z,100369.00
2022-08-16T05:00:34.776Z,100385.00
2022-08-16T05:03:10.352Z,100387.00
2022-08-16T05:05:45.290Z,100368.00
2022-08-16T05:08:29.248Z,100363.00
2022-08-16T05:11:03.483Z,100388.00
2022-08-16T05:13:41.226Z,100381.00
2022-08-16T05:16:25.127Z,100390.00
2022-08-16T05:18:58.291Z,100399.00
2022-08-16T05:21:38.058Z,100386.00
2022-08-16T05:24:09.146Z,100398.00
2022-08-16T05:26:43.023Z,100391.00
2022-08-16T05:29:14.754Z,100391.00
2022-08-16T05:31:48.444Z,100394.00
2022-08-16T05:34:25.875Z,100402.00
2022-08-16T05:36:57.298Z,100399.00
2022-08-16T05:39:27.476Z,100400.00
2022-08-16T05:41:56.886Z,100397.00
2022-08-16T05:44:25.389Z,100399.00
2022-08-16T05:47:00.171Z,100388.00
2022-08-16T05:49:38.456Z,100401.00
2022-08-16T05:52:11.707Z,100395.00
2022-08-16T05:54:47.255Z,100406.00
2022-08-16T05:57:19.009Z,100402.00
2022-08-16T05:59:50.602Z,100408.00
2022-08-16T06:02:30.745Z,100414.00
2022-08-16T06:05:00.949Z,100408.00
2022-08-16T06:07:29.531Z,100422.00
2022-08-16T06:10:01.593Z,100415.00
2022-08-16T06:12:31.047Z,100424.00
2022-08-16T06:15:11.758Z,100424.00
2022-08-16T06:17:44.525Z,100427.00
2022-08-16T06:20:25.673Z,100419.00
2022-08-16T06:23:11.586Z,100427.00
2022-08-16T06:25:39.813Z,100429.00
2022-08-16T06:28:16.912Z,100431.00
2022-08-16T06:30:59.244Z,100421.00
2022-08-16T06:33:29.509Z,100425.00
2022-08-16T06:36:11.813Z,100425.00
2022-08-16T06:38:55.387Z,100419.00
2022-08-16T06:41:27.400Z,100426.00
2022-08-16T06:43:55.910Z,100421.00
2022-08-16T06:46:31.789Z,100423.00
2022-08-16T06:49:01.014Z,100419.00
2022-08-16T06:51:46.612Z,100415.00
2022-08-16T06:54:17.409Z,100414.00
2022-08-16T06:56:45.818Z,100427.00
2022-08-16T06:59:13.395Z,100425.00
2022-08-16T07:01:46.250Z,100422.00
2022-08-16T07:04:32.324Z,100427.00
2022-08-16T07:07:02.914Z,100431.00
2022-08-16T07:09:30.561Z,100435.00
2022-08-16T07:12:03.704Z,100431.00
2022-08-16T07:14:35.159Z,100437.00
2022-08-16T07:17:03.397Z,100437.00
2022-08-16T07:20:02.850Z,100424.00
2022-08-16T07:22:37.569Z,100429.00
2022-08-16T07:25:15.977Z,100443.00
2022-08-16T07:27:44.867Z,100439.00
2022-08-16T07:30:39.015Z,100441.00
2022-08-16T07:33:06.992Z,100437.00
2022-08-16T07:35:34.759Z,100433.00
2022-08-16T07:38:06.376Z,100436.00
2022-08-16T07:40:59.708Z,100445.00
2022-08-16T07:43:25.140Z,100440.00
2022-08-16T07:45:56.719Z,100445.00
2022-08-16T07:48:24.178Z,100446.00
2022-08-16T07:50:55.673Z,100449.00
2022-08-16T07:53:25.397Z,100442.00
2022-08-16T07:55:57.895Z,100451.00
2022-08-16T07:58:33.931Z,100454.00
2022-08-16T08:01:10.631Z,100449.00
2022-08-16T08:03:48.198Z,100451.00
2022-08-16T08:06:25.068Z,100457.00
2022-08-16T08:08:57.015Z,100459.00
2022-08-16T08:11:28.613Z,100458.00
2022-08-16T08:14:03.713Z,100460.00
2022-08-16T08:16:32.856Z,100463.00
2022-08-16T08:19:02.773Z,100466.00
2022-08-16T08:22:01.152Z,100477.00
2022-08-16T08:24:32.359Z,100476.00
2022-08-16T08:27:04.374Z,100477.00
2022-08-16T08:29:37.764Z,100471.00
2022-08-16T08:32:58.489Z,100479.00
2022-08-16T08:35:03.249Z,100476.00
2022-08-16T08:37:54.763Z,100484.00
2022-08-16T08:40:24.748Z,100482.00
2022-08-16T08:43:00.150Z,100477.00
2022-08-16T08:45:47.891Z,100483.00
2022-08-16T08:48:32.792Z,100486.00
2022-08-16T08:51:00.345Z,100490.00
2022-08-16T08:53:29.963Z,100486.00
2022-08-16T08:55:59.261Z,100482.00
2022-08-16T08:58:34.086Z,100494.00
2022-08-16T09:01:03.904Z,100491.00
2022-08-16T09:03:32.387Z,100489.00
2022-08-16T09:06:01.089Z,100487.00
2022-08-16T09:08:28.563Z,100476.00
2022-08-16T09:11:01.944Z,100480.00
2022-08-16T09:13:32.269Z,100479.00
2022-08-16T09:16:00.570Z,100485.00
2022-08-16T09:18:35.703Z,100485.00
2022-08-16T09:21:07.216Z,100487.00
2022-08-16T09:23:40.109Z,100492.00
2022-08-16T09:26:44.129Z,100499.00
2022-08-16T09:29:14.882Z,100499.00
2022-08-16T09:31:44.962Z,100505.00
2022-08-16T09:34:18.611Z,100512.00
2022-08-16T09:36:47.006Z,100503.00
2022-08-16T09:39:16.643Z,100497.00
2022-08-16T09:41:53.886Z,100500.00
2022-08-16T09:45:11.181Z,100498.00
2022-08-16T09:47:13.859Z,100492.00
2022-08-16T09:49:41.812Z,100502.00
2022-08-16T09:52:10.815Z,100492.00
2022-08-16T09:54:44.354Z,100499.00
2022-08-16T09:57:13.084Z,100492.00
2022-08-16T09:59:41.895Z,100499.00
2022-08-16T10:02:26.261Z,100500.00
2022-08-16T10:04:55.383Z,100493.00
2022-08-16T10:07:44.811Z,100490.00
2022-08-16T10:10:18.867Z,100492.00
2022-08-16T10:13:14.393Z,100478.00
2022-08-16T10:15:55.008Z,100480.00
2022-08-16T10:18:56.319Z,100478.00
2022-08-16T10:21:11.471Z,100487.00
2022-08-16T10:23:39.422Z,100492.00
2022-08-16T10:27:17.613Z,100485.00
2022-08-16T10:28:54.250Z,100478.00
2022-08-16T10:31:44.414Z,100476.00
2022-08-16T10:34:31.299Z,100484.00
2022-08-16T10:36:57.013Z,100476.00
2022-08-16T10:39:24.893Z,100487.00
2022-08-16T10:41:52.036Z,100483.00
2022-08-16T10:44:19.219Z,100484.00
2022-08-16T10:46:46.402Z,100490.00
2022-08-16T10:49:16.819Z,100484.00
2022-08-16T10:52:03.407Z,100488.00
2022-08-16T10:54:34.161Z,100498.00
2022-08-16T10:57:21.227Z,100501.00
2022-08-16T10:59:57.793Z,100496.00
2022-08-16T11:02:59.421Z,100496.00
2022-08-16T11:05:17.668Z,100496.00
2022-08-16T11:07:52.073Z,100501.00
2022-08-16T11:16:26.807Z,100525.00
2022-08-16T11:19:03.918Z,100532.00
2022-08-16T11:22:11.164Z,100535.00
2022-08-16T11:24:41.267Z,100534.00
2022-08-16T11:27:19.776Z,100532.00
2022-08-16T11:29:52.131Z,100533.00
2022-08-16T11:32:29.819Z,100530.00
2022-08-16T11:35:13.838Z,100533.00
2022-08-16T11:38:47.151Z,100532.00
2022-08-16T11:41:00.360Z,100530.00
2022-08-16T11:43:35.926Z,100532.00
2022-08-16T11:46:44.141Z,100535.00
2022-08-16T11:48:58.968Z,100531.00
2022-08-16T11:51:26.296Z,100529.00
2022-08-16T11:53:53.538Z,100530.00
2022-08-16T11:56:39.496Z,100541.00
2022-08-16T11:59:08.877Z,100548.00
2022-08-16T12:01:44.605Z,100546.00
2022-08-16T12:04:23.815Z,100547.00
2022-08-16T12:06:54.765Z,100559.00
2022-08-16T12:09:24.913Z,100560.00
2022-08-16T12:11:58.393Z,100564.00
2022-08-16T12:14:35.434Z,100546.00
2022-08-16T12:17:08.117Z,100557.00
2022-08-16T12:19:36.713Z,100556.00
2022-08-16T12:22:19.369Z,100549.00
2022-08-16T12:24:52.551Z,100551.00
2022-08-16T12:27:24.263Z,100541.00
2022-08-16T12:29:58.366Z,100547.00
2022-08-16T12:32:38.641Z,100534.00
2022-08-16T12:35:14.924Z,100530.00
2022-08-16T12:37:46.235Z,100538.00
2022-08-16T12:40:25.375Z,100549.00
2022-08-16T12:43:00.926Z,100546.00
2022-08-16T12:45:33.250Z,100547.00
2022-08-16T12:48:33.624Z,100543.00
2022-08-16T12:51:23.803Z,100535.00
2022-08-16T12:53:55.795Z,100530.00
2022-08-16T12:56:28.773Z,100520.00
2022-08-16T12:58:58.380Z,100539.00
2022-08-16T13:01:31.943Z,100530.00
2022-08-16T13:04:12.254Z,100535.00
2022-08-16T13:06:52.508Z,100544.00
2022-08-16T13:09:26.875Z,100543.00
2022-08-16T13:12:23.568Z,100540.00
2022-08-16T13:14:53.931Z,100528.00
2022-08-16T13:17:29.875Z,100529.00
2022-08-16T13:20:13.898Z,100529.00
2022-08-16T13:22:50.413Z,100527.00
2022-08-16T13:25:23.892Z,100531.00
2022-08-16T13:28:14.988Z,100518.00
2022-08-16T13:30:50.729Z,100522.00
2022-08-16T13:33:29.986Z,100527.00
2022-08-16T13:36:00.841Z,100526.00
2022-08-16T13:38:31.371Z,100514.00
2022-08-16T13:41:12.516Z,100520.00
2022-08-16T13:43:42.222Z,100522.00
2022-08-16T13:46:09.431Z,100520.00
2022-08-16T13:48:43.883Z,100522.00
2022-08-16T13:51:19.553Z,100528.00
2022-08-16T13:53:59.074Z,100521.00
2022-08-16T13:56:36.890Z,100531.00
2022-08-16T13:59:20.383Z,100527.00
2022-08-16T14:01:59.870Z,100523.00
2022-08-16T14:04:36.518Z,100518.00
2022-08-16T14:07:09.362Z,100533.00
2022-08-16T14:09:38.529Z,100533.00
2022-08-16T14:12:24.251Z,100535.00
2022-08-16T14:14:56.351Z,100542.00
2022-08-16T14:17:25.414Z,100543.00
2022-08-16T14:19:53.543Z,100539.00
2022-08-16T14:22:39.966Z,100545.00
2022-08-16T14:25:16.579Z,100550.00
2022-08-16T14:27:46.924Z,100558.00
2022-08-16T14:30:18.809Z,100562.00
2022-08-16T14:32:49.601Z,100562.00
2022-08-16T14:35:36.844Z,100562.00
2022-08-16T14:38:18.544Z,100560.00
2022-08-16T14:40:52.750Z,100557.00
2022-08-16T14:43:23.641Z,100549.00
2022-08-16T14:45:51.351Z,100539.00
2022-08-16T14:48:26.378Z,100543.00
2022-08-16T14:50:55.494Z,100547.00
2022-08-16T14:53:26.459Z,100551.00
2022-08-16T14:55:54.307Z,100551.00
2022-08-16T14:58:34.593Z,100551.00
2022-08-16T15:01:03.042Z,100542.00
2022-08-16T15:03:32.945Z,100546.00
2022-08-16T15:06:01.995Z,100542.00
2022-08-16T15:08:36.527Z,100535.00
2022-08-16T15:11:06.067Z,100548.00
2022-08-16T15:13:35.937Z,100535.00
2022-08-16T15:16:04.240Z,100543.00
2022-08-16T15:18:33.706Z,100546.00
2022-08-16T15:21:04.344Z,100543.00
2022-08-16T15:23:33.867Z,100544.00
2022-08-16T15:26:04.012Z,100537.00
2022-08-16T15:28:38.050Z,100541.00
2022-08-16T15:31:09.811Z,100536.00
2022-08-16T15:33:56.595Z,100541.00
2022-08-16T15:36:26.482Z,100532.00
2022-08-16T15:39:05.793Z,100544.00
2022-08-16T15:41:46.908Z,100551.00
2022-08-16T15:44:22.992Z,100559.00
2022-08-16T15:46:56.327Z,100559.00
2022-08-16T15:49:36.897Z,100570.00
2022-08-16T15:52:20.560Z,100571.00
2022-08-16T15:54:53.613Z,100570.00
2022-08-16T15:57:25.905Z,100574.00
2022-08-16T15:59:56.301Z,100562.00
2022-08-16T16:02:33.600Z,100571.00
2022-08-16T16:05:06.789Z,100570.00
2022-08-16T16:07:35.528Z,100563.00
2022-08-16T16:10:13.141Z,100563.00
2022-08-16T16:12:50.951Z,100556.00
2022-08-16T16:15:26.592Z,100554.00
2022-08-16T16:17:57.754Z,100559.00
2022-08-16T16:20:31.080Z,100559.00
2022-08-16T16:23:03.690Z,100559.00
2022-08-16T16:25:44.003Z,100554.00
2022-08-16T16:29:05.181Z,100562.00
2022-08-16T16:31:15.107Z,100564.00
2022-08-16T16:33:47.863Z,100561.00
2022-08-16T16:36:23.110Z,100555.00
2022-08-16T16:38:53.367Z,100556.00
2022-08-16T16:41:26.535Z,100553.00
2022-08-16T16:43:56.323Z,100559.00
2022-08-16T16:46:41.304Z,100553.00
2022-08-16T16:49:14.084Z,100562.00
2022-08-16T16:51:44.495Z,100573.00
2022-08-16T16:54:13.393Z,100563.00
2022-08-16T16:56:54.954Z,100560.00
2022-08-16T16:59:23.644Z,100561.00
2022-08-16T17:01:59.608Z,100556.00
2022-08-16T17:04:38.813Z,100552.00
2022-08-16T17:07:10.627Z,100551.00
2022-08-16T17:09:40.126Z,100551.00
2022-08-16T17:12:14.607Z,100555.00
2022-08-16T17:14:53.579Z,100559.00
2022-08-16T17:17:21.455Z,100562.00
2022-08-16T17:19:48.776Z,100554.00
2022-08-16T17:22:20.943Z,100552.00
2022-08-16T17:24:53.363Z,100555.00
2022-08-16T17:27:32.530Z,100555.00
2022-08-16T17:30:20.167Z,100554.00
2022-08-16T17:32:59.576Z,100554.00
2022-08-16T17:38:32.852Z,100564.00
2022-08-16T17:39:28.160Z,100562.00
2022-08-16T17:41:08.016Z,100567.00
2022-08-16T17:43:44.155Z,100568.00
2022-08-16T17:46:41.245Z,100574.00
2022-08-16T17:49:01.741Z,100575.00
2022-08-16T17:51:28.903Z,100564.00
2022-08-16T17:53:57.145Z,100560.00
2022-08-16T17:56:24.515Z,100569.00
2022-08-16T17:58:52.044Z,100572.00
2022-08-16T18:01:28.734Z,100564.00
2022-08-16T18:04:06.716Z,100558.00
2022-08-16T18:06:37.307Z,100557.00
2022-08-16T18:09:05.118Z,100564.00
2022-08-16T18:11:41.156Z,100562.00
2022-08-16T18:14:12.142Z,100559.00
2022-08-16T18:16:41.405Z,100566.00
2022-08-16T18:19:11.011Z,100569.00
2022-08-16T18:21:57.038Z,100568.00
2022-08-16T18:24:28.580Z,100564.00
2022-08-16T18:26:56.369Z,100580.00
2022-08-16T18:29:49.889Z,100571.00
2022-08-16T18:32:22.158Z,100575.00
2022-08-16T18:34:54.178Z,100578.00
2022-08-16T18:37:23.688Z,100582.00
2022-08-16T18:39:55.130Z,100577.00
2022-08-16T18:42:25.869Z,100591.00
2022-08-16T18:44:53.178Z,100586.00
2022-08-16T18:47:20.986Z,100580.00
2022-08-16T18:49:48.595Z,100590.00
2022-08-16T18:52:25.538Z,100593.00
2022-08-16T18:55:01.818Z,100596.00
2022-08-16T18:57:41.198Z,100595.00
2022-08-16T19:00:17.661Z,100598.00
2022-08-16T19:02:58.878Z,100604.00
2022-08-16T19:05:30.012Z,100599.00
2022-08-16T19:07:58.569Z,100596.00
2022-08-16T19:10:26.048Z,100603.00
2022-08-16T19:12:53.714Z,100608.00
2022-08-16T19:15:29.248Z,100604.00
2022-08-16T19:17:57.173Z,100608.00
2022-08-16T19:20:28.729Z,100614.00
2022-08-16T19:23:10.594Z,100625.00
2022-08-16T19:25:49.206Z,100626.00
2022-08-16T19:28:51.774Z,100627.00
2022-08-16T19:31:25.645Z,100622.00
2022-08-16T19:33:57.015Z,100629.00
2022-08-16T19:36:35.250Z,100632.00
2022-08-16T19:39:11.564Z,100641.00
2022-08-16T19:41:45.492Z,100648.00
2022-08-16T19:44:13.632Z,100650.00
2022-08-16T19:46:45.817Z,100648.00
2022-08-16T19:49:15.689Z,100659.00
2022-08-16T19:51:44.437Z,100668.00
2022-08-16T19:54:14.925Z,100662.00
2022-08-16T19:56:42.154Z,100668.00
2022-08-16T19:59:19.320Z,100675.00
2022-08-16T20:01:51.216Z,100671.00
2022-08-16T20:04:18.704Z,100669.00
2022-08-16T20:06:46.964Z,100669.00
2022-08-16T20:09:15.123Z,100675.00
2022-08-16T20:11:49.223Z,100669.00
2022-08-16T20:14:24.586Z,100675.00
2022-08-16T20:16:59.074Z,100682.00
2022-08-16T20:19:36.338Z,100685.00
2022-08-16T20:22:49.662Z,100683.00
2022-08-16T20:25:15.278Z,100669.00
2022-08-16T20:27:43.094Z,100679.00
2022-08-16T20:30:16.843Z,100685.00
2022-08-16T20:32:46.075Z,100689.00
2022-08-16T20:35:17.052Z,100697.00
2022-08-16T20:37:44.758Z,100695.00
2022-08-16T20:40:34.330Z,100674.00
2022-08-16T20:43:15.636Z,100686.00
2022-08-16T20:45:46.336Z,100687.00
2022-08-16T20:48:14.447Z,100684.00
2022-08-16T20:50:42.466Z,100692.00
2022-08-16T20:53:10.011Z,100693.00
2022-08-16T20:55:40.192Z,100704.00
2022-08-16T20:58:07.518Z,100700.00
2022-08-16T21:00:34.860Z,100693.00
2022-08-16T21:03:11.655Z,100700.00
2022-08-16T21:05:39.339Z,100687.00
2022-08-16T21:08:50.185Z,100695.00
2022-08-16T21:10:54.635Z,100705.00
2022-08-16T21:13:22.311Z,100711.00
2022-08-16T21:15:49.564Z,100711.00
2022-08-16T21:18:16.850Z,100727.00
2022-08-16T21:20:44.058Z,100725.00
2022-08-16T21:23:11.519Z,100739.00
2022-08-16T21:25:58.485Z,100731.00
2022-08-16T21:28:39.561Z,100723.00
2022-08-16T21:31:15.112Z,100713.00
2022-08-16T21:33:44.000Z,100708.00
2022-08-16T21:36:12.749Z,100706.00
2022-08-16T21:38:40.912Z,100708.00
2022-08-16T21:41:10.202Z,100707.00
2022-08-16T21:43:37.485Z,100703.00
2022-08-16T21:46:06.811Z,100693.00
2022-08-16T21:48:36.742Z,100694.00
2022-08-16T21:51:13.107Z,100685.00
2022-08-16T21:53:41.717Z,100682.00
2022-08-16T21:56:09.881Z,100685.00
2022-08-16T21:58:45.399Z,100684.00
2022-08-16T22:01:13.641Z,100685.00
2022-08-16T22:03:40.824Z,100686.00
2022-08-16T22:06:13.804Z,100682.00
2022-08-16T22:08:48.801Z,100684.00
2022-08-16T22:11:24.264Z,100677.00
2022-08-16T22:13:58.619Z,100670.00
2022-08-16T22:16:32.933Z,100679.00
2022-08-16T22:19:01.670Z,100683.00
2022-08-16T22:21:29.683Z,100676.00
2022-08-16T22:23:58.824Z,100688.00
2022-08-16T22:26:42.338Z,100700.00
2022-08-16T22:29:14.938Z,100705.00
2022-08-16T22:31:46.090Z,100698.00
2022-08-16T22:34:14.415Z,100695.00
2022-08-16T22:36:42.165Z,100696.00
2022-08-16T22:39:13.895Z,100687.00
2022-08-16T22:41:45.972Z,100694.00
2022-08-16T22:44:14.201Z,100691.00
2022-08-16T22:46:41.433Z,100688.00
2022-08-16T22:49:09.123Z,100688.00
2022-08-16T22:51:38.154Z,100686.00
2022-08-16T22:54:41.348Z,100690.00
2022-08-16T22:56:56.606Z,100682.00
2022-08-16T22:59:25.360Z,100691.00
2022-08-16T23:01:53.547Z,100695.00
2022-08-16T23:04:22.365Z,100683.00
2022-08-16T23:06:49.640Z,100684.00
2022-08-16T23:09:17.027Z,100676.00
2022-08-16T23:11:45.017Z,100669.00
2022-08-16T23:14:12.387Z,100661.00
2022-08-16T23:16:39.593Z,100667.00
2022-08-16T23:19:12.973Z,100663.00
2022-08-16T23:21:44.646Z,100668.00
2022-08-16T23:24:14.351Z,100667.00
2022-08-16T23:26:46.441Z,100674.00
2022-08-16T23:29:25.609Z,100669.00
2022-08-16T23:32:08.378Z,100662.00
2022-08-16T23:34:35.890Z,100671.00
2022-08-16T23:37:03.175Z,100673.00
2022-08-16T23:39:30.394Z,100659.00
2022-08-16T23:41:58.822Z,100661.00
2022-08-16T23:44:56.742Z,100662.00
2022-08-16T23:47:13.350Z,100664.00
2022-08-16T23:49:59.359Z,100672.00
2022-08-16T23:52:53.443Z,100668.00
2022-08-16T23:55:16.268Z,100665.00
2022-08-16T23:57:44.980Z,100659.00
